EGGP Airport Information

Runway Information
Runway 09 Length 7500 ft width 151 ft
Elevation 59 ft Threshold 200 ft Heading 86
Runway 27 Length 7500 ft Width 151 ft
Elevation 77 ft Threshold 0 ft Heading 266
Airport Frequencies
Type APP Name APP Frequency 119.85 MHZ
Type ATIS Name ATIS Frequency 124.325 MHZ
Type GND Name GND Frequency 121.95 MHZ
Type TWR Name TWR Frequency 126.35 MHZ
Airport Navaids
Airport Weather Information & NOTAM
ADDS - METARS form results

(1857 UTC 17 October 2018)
Data provider http://aviationweather.gov/metar/data/
 
METAR text: EGGP 171850Z 33008KT 9999 BKN043 11/08 Q1024
Conditions at: EGGP (LIVERPOOL AIRPOR, GB) observed 1850 UTC 17 October 2018
Temperature: 11.0°C (52°F)
Dewpoint: 8.0°C (46°F) [RH = 82%]
Pressure (altimeter): 30.24 inches Hg (1024.0 mb)
Winds: from the NNW (330 degrees) at 9 MPH (8 knots; 4.1 m/s)
Visibility: 6 or more miles (10+ km)
Ceiling: 4300 feet AGL
Clouds: broken clouds at 4300 feet AGL
Weather: no significant weather observed at this time

METAR text: EGGP 171820Z 33008KT 9999 FEW043 12/08 Q1024
Conditions at: EGGP (LIVERPOOL AIRPOR, GB) observed 1820 UTC 17 October 2018
Temperature: 12.0°C (54°F)
Dewpoint: 8.0°C (46°F) [RH = 76%]
Pressure (altimeter): 30.24 inches Hg (1024.0 mb)
Winds: from the NNW (330 degrees) at 9 MPH (8 knots; 4.1 m/s)
Visibility: 6 or more miles (10+ km)
Ceiling: at least 12,000 feet AGL
Clouds: few clouds at 4300 feet AGL
Weather: no significant weather observed at this time

Forecast for: EGGP (LIVERPOOL AIRPOR, GB)
Text: TAF EGGP 171657Z 1718/1818 35006KT 9999 FEW040
Forecast period: 1800 UTC 17 October 2018 to 1800 UTC 18 October 2018
Forecast type: FROM: standard forecast or significant change
Winds: from the N (350 degrees) at 7 MPH (6 knots; 3.1 m/s)
Visibility: 6 or more miles 10+ km)
Ceiling: at least 12,000 feet AGL
Clouds: few clouds at 4000 feet AGL
Weather: no significant weather forecast for this period
Text: PROB30 1803/1809 9000
Forecast period: 0300 to 0900 UTC 18 October 2018
Forecast type: PROBABLE: 30 percent likelihood of the following during this time
Visibility: 6 miles (9 km)
Ceiling: unknown
Clouds: missing
Weather: no significant weather forecast for this period